sensor_id;sensor_type;location;lat;lon;timestamp;pressure;altitude;pressure_sealevel;temperature;humidity
56568;BME280;42456;49.956;20.004;2023-02-15T00:01:43;100019.06;;;2.78;83.15
56568;BME280;42456;49.956;20.004;2023-02-15T00:04:13;100015.98;;;2.77;83.15
56568;BME280;42456;49.956;20.004;2023-02-15T00:06:41;100012.14;;;2.76;83.24
56568;BME280;42456;49.956;20.004;2023-02-15T00:09:08;100012.83;;;2.77;83.40
56568;BME280;42456;49.956;20.004;2023-02-15T00:11:36;100010.28;;;2.77;83.23
56568;BME280;42456;49.956;20.004;2023-02-15T00:14:12;100009.08;;;2.78;83.03
56568;BME280;42456;49.956;20.004;2023-02-15T00:16:41;100010.38;;;2.79;83.34
56568;BME280;42456;49.956;20.004;2023-02-15T00:19:09;100008.05;;;2.79;83.25
56568;BME280;42456;49.956;20.004;2023-02-15T00:21:38;100007.15;;;2.79;83.26
56568;BME280;42456;49.956;20.004;2023-02-15T00:24:07;100002.31;;;2.79;83.07
56568;BME280;42456;49.956;20.004;2023-02-15T00:26:34;100000.98;;;2.79;83.37
56568;BME280;42456;49.956;20.004;2023-02-15T00:29:02;99997.58;;;2.79;83.07
56568;BME280;42456;49.956;20.004;2023-02-15T00:31:31;99996.39;;;2.78;82.92
56568;BME280;42456;49.956;20.004;2023-02-15T00:34:02;99999.02;;;2.79;82.80
56568;BME280;42456;49.956;20.004;2023-02-15T00:36:30;100001.25;;;2.79;83.14
56568;BME280;42456;49.956;20.004;2023-02-15T00:38:57;100000.18;;;2.79;83.13
56568;BME280;42456;49.956;20.004;2023-02-15T00:41:24;99998.31;;;2.79;82.77
56568;BME280;42456;49.956;20.004;2023-02-15T00:43:51;99996.20;;;2.79;82.75
56568;BME280;42456;49.956;20.004;2023-02-15T00:46:17;99994.64;;;2.78;83.15
56568;BME280;42456;49.956;20.004;2023-02-15T00:48:44;99991.00;;;2.79;83.06
56568;BME280;42456;49.956;20.004;2023-02-15T00:51:11;99991.09;;;2.79;82.93
56568;BME280;42456;49.956;20.004;2023-02-15T00:53:38;99984.93;;;2.79;82.95
56568;BME280;42456;49.956;20.004;2023-02-15T00:56:05;99980.77;;;2.79;83.15
56568;BME280;42456;49.956;20.004;2023-02-15T00:58:32;99977.27;;;2.78;83.25
56568;BME280;42456;49.956;20.004;2023-02-15T01:01:04;99978.80;;;2.78;82.92
56568;BME280;42456;49.956;20.004;2023-02-15T01:03:32;99977.16;;;2.78;82.82
56568;BME280;42456;49.956;20.004;2023-02-15T01:05:59;99974.20;;;2.79;82.99
56568;BME280;42456;49.956;20.004;2023-02-15T01:08:27;99967.21;;;2.80;83.06
56568;BME280;42456;49.956;20.004;2023-02-15T01:10:54;99962.84;;;2.82;82.78
56568;BME280;42456;49.956;20.004;2023-02-15T01:13:21;99962.99;;;2.85;82.68
56568;BME280;42456;49.956;20.004;2023-02-15T01:15:53;99962.63;;;2.88;82.87
56568;BME280;42456;49.956;20.004;2023-02-15T01:18:21;99957.55;;;2.90;82.75
56568;BME280;42456;49.956;20.004;2023-02-15T01:20:49;99953.10;;;2.90;82.83
56568;BME280;42456;49.956;20.004;2023-02-15T01:23:16;99950.92;;;2.90;82.79
56568;BME280;42456;49.956;20.004;2023-02-15T01:25:42;99950.70;;;2.90;82.95
56568;BME280;42456;49.956;20.004;2023-02-15T01:28:10;99951.36;;;2.88;82.65
56568;BME280;42456;49.956;20.004;2023-02-15T01:30:36;99951.77;;;2.88;82.56
56568;BME280;42456;49.956;20.004;2023-02-15T01:33:03;99952.61;;;2.87;82.28
56568;BME280;42456;49.956;20.004;2023-02-15T01:35:30;99954.55;;;2.84;82.51
56568;BME280;42456;49.956;20.004;2023-02-15T01:37:57;99947.79;;;2.81;82.50
56568;BME280;42456;49.956;20.004;2023-02-15T01:40:24;99949.65;;;2.79;82.45
56568;BME280;42456;49.956;20.004;2023-02-15T01:42:52;99945.50;;;2.79;82.24
56568;BME280;42456;49.956;20.004;2023-02-15T01:45:28;99942.68;;;2.79;82.77
56568;BME280;42456;49.956;20.004;2023-02-15T01:50:53;99943.67;;;2.80;82.44
56568;BME280;42456;49.956;20.004;2023-02-15T01:53:28;99937.33;;;2.81;82.55
56568;BME280;42456;49.956;20.004;2023-02-15T01:56:00;99935.96;;;2.83;82.29
56568;BME280;42456;49.956;20.004;2023-02-15T01:58:30;99932.23;;;2.84;82.34
56568;BME280;42456;49.956;20.004;2023-02-15T02:00:59;99931.45;;;2.86;82.71
56568;BME280;42456;49.956;20.004;2023-02-15T02:03:43;99929.79;;;2.87;82.53
56568;BME280;42456;49.956;20.004;2023-02-15T02:06:14;99926.33;;;2.88;82.46
56568;BME280;42456;49.956;20.004;2023-02-15T02:08:41;99919.44;;;2.87;82.37
56568;BME280;42456;49.956;20.004;2023-02-15T02:11:11;99923.27;;;2.86;82.00
56568;BME280;42456;49.956;20.004;2023-02-15T02:13:39;99912.61;;;2.84;82.13
56568;BME280;42456;49.956;20.004;2023-02-15T02:20:08;99907.10;;;2.80;81.72
56568;BME280;42456;49.956;20.004;2023-02-15T02:22:22;99908.77;;;2.77;82.27
56568;BME280;42456;49.956;20.004;2023-02-15T02:27:47;99907.40;;;2.72;81.86
56568;BME280;42456;49.956;20.004;2023-02-15T02:41:36;99903.30;;;2.78;81.83
56568;BME280;42456;49.956;20.004;2023-02-15T02:46:56;99900.30;;;2.82;81.47
56568;BME280;42456;49.956;20.004;2023-02-15T02:51:59;99895.66;;;2.85;81.68
56568;BME280;42456;49.956;20.004;2023-02-15T02:54:27;99901.70;;;2.84;81.70
56568;BME280;42456;49.956;20.004;2023-02-15T02:56:56;99899.08;;;2.82;82.00
56568;BME280;42456;49.956;20.004;2023-02-15T02:59:52;99897.71;;;2.81;81.14
56568;BME280;42456;49.956;20.004;2023-02-15T03:02:26;99890.70;;;2.78;81.37
56568;BME280;42456;49.956;20.004;2023-02-15T03:05:00;99890.88;;;2.76;81.37
56568;BME280;42456;49.956;20.004;2023-02-15T03:07:31;99889.90;;;2.74;81.13
56568;BME280;42456;49.956;20.004;2023-02-15T03:10:00;99888.26;;;2.71;81.29
56568;BME280;42456;49.956;20.004;2023-02-15T03:12:32;99892.27;;;2.68;81.22
56568;BME280;42456;49.956;20.004;2023-02-15T03:15:02;99890.19;;;2.67;81.23
56568;BME280;42456;49.956;20.004;2023-02-15T03:17:32;99892.81;;;2.68;81.29
56568;BME280;42456;49.956;20.004;2023-02-15T03:20:04;99890.54;;;2.68;81.32
56568;BME280;42456;49.956;20.004;2023-02-15T03:22:39;99886.17;;;2.69;81.16
56568;BME280;42456;49.956;20.004;2023-02-15T03:25:22;99886.20;;;2.70;81.26
56568;BME280;42456;49.956;20.004;2023-02-15T03:27:58;99885.34;;;2.72;81.35
56568;BME280;42456;49.956;20.004;2023-02-15T03:30:28;99883.02;;;2.73;81.06
56568;BME280;42456;49.956;20.004;2023-02-15T03:32:58;99877.72;;;2.74;81.19
56568;BME280;42456;49.956;20.004;2023-02-15T03:35:33;99877.00;;;2.75;80.86
56568;BME280;42456;49.956;20.004;2023-02-15T03:38:06;99876.52;;;2.75;80.79
56568;BME280;42456;49.956;20.004;2023-02-15T03:40:40;99874.65;;;2.73;80.62
56568;BME280;42456;49.956;20.004;2023-02-15T03:46:20;99863.55;;;2.69;80.93
56568;BME280;42456;49.956;20.004;2023-02-15T03:48:52;99863.27;;;2.65;80.69
56568;BME280;42456;49.956;20.004;2023-02-15T03:51:23;99861.52;;;2.62;81.05
56568;BME280;42456;49.956;20.004;2023-02-15T03:54:18;99862.02;;;2.58;80.93
56568;BME280;42456;49.956;20.004;2023-02-15T03:57:01;99862.58;;;2.56;80.93
56568;BME280;42456;49.956;20.004;2023-02-15T03:59:42;99859.05;;;2.54;81.27
56568;BME280;42456;49.956;20.004;2023-02-15T04:02:28;99859.91;;;2.55;81.01
56568;BME280;42456;49.956;20.004;2023-02-15T04:05:00;99858.15;;;2.55;81.11
56568;BME280;42456;49.956;20.004;2023-02-15T04:07:27;99858.41;;;2.54;80.89
56568;BME280;42456;49.956;20.004;2023-02-15T04:09:54;99860.02;;;2.55;80.76
56568;BME280;42456;49.956;20.004;2023-02-15T04:12:34;99857.13;;;2.57;81.09
56568;BME280;42456;49.956;20.004;2023-02-15T04:15:01;99860.86;;;2.58;81.30
56568;BME280;42456;49.956;20.004;2023-02-15T04:17:54;99865.17;;;2.59;81.23
56568;BME280;42456;49.956;20.004;2023-02-15T04:20:21;99864.79;;;2.58;81.16
56568;BME280;42456;49.956;20.004;2023-02-15T04:23:01;99863.04;;;2.57;81.16
56568;BME280;42456;49.956;20.004;2023-02-15T04:25:41;99861.89;;;2.57;81.30
56568;BME280;42456;49.956;20.004;2023-02-15T04:28:09;99859.22;;;2.55;81.02
56568;BME280;42456;49.956;20.004;2023-02-15T04:30:35;99856.63;;;2.53;80.97
56568;BME280;42456;49.956;20.004;2023-02-15T04:33:02;99855.81;;;2.52;81.12
56568;BME280;42456;49.956;20.004;2023-02-15T04:35:29;99853.29;;;2.50;81.60
56568;BME280;42456;49.956;20.004;2023-02-15T04:37:58;99852.70;;;2.48;80.79
56568;BME280;42456;49.956;20.004;2023-02-15T04:40:24;99855.41;;;2.46;81.15
56568;BME280;42456;49.956;20.004;2023-02-15T04:42:51;99858.33;;;2.47;80.97
56568;BME280;42456;49.956;20.004;2023-02-15T04:45:18;99856.95;;;2.48;81.31
56568;BME280;42456;49.956;20.004;2023-02-15T04:47:45;99855.14;;;2.49;81.07
56568;BME280;42456;49.956;20.004;2023-02-15T04:50:11;99849.37;;;2.51;81.00
56568;BME280;42456;49.956;20.004;2023-02-15T04:52:38;99852.00;;;2.52;81.23
56568;BME280;42456;49.956;20.004;2023-02-15T04:55:05;99849.58;;;2.53;81.12
56568;BME280;42456;49.956;20.004;2023-02-15T04:57:32;99853.85;;;2.55;81.21
56568;BME280;42456;49.956;20.004;2023-02-15T04:59:59;99852.42;;;2.55;81.25
56568;BME280;42456;49.956;20.004;2023-02-15T05:02:26;99857.00;;;2.55;81.31
56568;BME280;42456;49.956;20.004;2023-02-15T05:04:53;99854.52;;;2.54;81.43
56568;BME280;42456;49.956;20.004;2023-02-15T05:07:19;99860.30;;;2.53;81.27
56568;BME280;42456;49.956;20.004;2023-02-15T05:09:47;99866.23;;;2.52;81.12
56568;BME280;42456;49.956;20.004;2023-02-15T05:12:14;99864.00;;;2.49;81.43
56568;BME280;42456;49.956;20.004;2023-02-15T05:14:41;99865.09;;;2.48;81.17
56568;BME280;42456;49.956;20.004;2023-02-15T05:17:08;99864.79;;;2.46;81.48
56568;BME280;42456;49.956;20.004;2023-02-15T05:19:34;99863.33;;;2.44;81.17
56568;BME280;42456;49.956;20.004;2023-02-15T05:22:01;99864.10;;;2.43;81.22
56568;BME280;42456;49.956;20.004;2023-02-15T05:24:28;99863.58;;;2.42;81.22
56568;BME280;42456;49.956;20.004;2023-02-15T05:27:12;99864.20;;;2.40;81.33
56568;BME280;42456;49.956;20.004;2023-02-15T05:29:53;99863.51;;;2.40;81.19
56568;BME280;42456;49.956;20.004;2023-02-15T05:32:20;99863.06;;;2.39;81.53
56568;BME280;42456;49.956;20.004;2023-02-15T05:34:47;99864.73;;;2.40;81.32
56568;BME280;42456;49.956;20.004;2023-02-15T05:37:14;99865.75;;;2.41;81.64
56568;BME280;42456;49.956;20.004;2023-02-15T05:39:41;99865.59;;;2.43;81.72
56568;BME280;42456;49.956;20.004;2023-02-15T05:42:07;99865.04;;;2.45;81.58
56568;BME280;42456;49.956;20.004;2023-02-15T05:44:34;99867.85;;;2.45;81.49
56568;BME280;42456;49.956;20.004;2023-02-15T05:47:01;99869.27;;;2.44;81.58
56568;BME280;42456;49.956;20.004;2023-02-15T05:49:29;99868.98;;;2.42;81.36
56568;BME280;42456;49.956;20.004;2023-02-15T05:51:56;99866.69;;;2.40;81.36
56568;BME280;42456;49.956;20.004;2023-02-15T05:54:23;99868.86;;;2.37;81.41
56568;BME280;42456;49.956;20.004;2023-02-15T05:56:50;99871.42;;;2.35;81.44
56568;BME280;42456;49.956;20.004;2023-02-15T05:59:17;99872.53;;;2.32;81.46
56568;BME280;42456;49.956;20.004;2023-02-15T06:01:44;99871.06;;;2.30;81.92
56568;BME280;42456;49.956;20.004;2023-02-15T06:04:10;99871.65;;;2.30;81.56
56568;BME280;42456;49.956;20.004;2023-02-15T06:06:37;99874.31;;;2.31;81.45
56568;BME280;42456;49.956;20.004;2023-02-15T06:09:04;99872.08;;;2.33;81.81
56568;BME280;42456;49.956;20.004;2023-02-15T06:11:31;99870.67;;;2.35;81.63
56568;BME280;42456;49.956;20.004;2023-02-15T06:13:57;99868.04;;;2.38;81.72
56568;BME280;42456;49.956;20.004;2023-02-15T06:16:25;99870.15;;;2.40;81.94
56568;BME280;42456;49.956;20.004;2023-02-15T06:18:51;99868.83;;;2.43;81.30
56568;BME280;42456;49.956;20.004;2023-02-15T06:21:19;99869.80;;;2.47;81.79
56568;BME280;42456;49.956;20.004;2023-02-15T06:23:46;99866.60;;;2.49;81.71
56568;BME280;42456;49.956;20.004;2023-02-15T06:26:12;99865.39;;;2.50;81.38
56568;BME280;42456;49.956;20.004;2023-02-15T06:28:39;99866.05;;;2.51;81.68
56568;BME280;42456;49.956;20.004;2023-02-15T06:31:07;99864.77;;;2.51;81.64
56568;BME280;42456;49.956;20.004;2023-02-15T06:33:34;99867.73;;;2.50;81.46
56568;BME280;42456;49.956;20.004;2023-02-15T06:36:02;99868.13;;;2.49;81.49
56568;BME280;42456;49.956;20.004;2023-02-15T06:38:31;99866.27;;;2.46;81.38
56568;BME280;42456;49.956;20.004;2023-02-15T06:40:57;99869.00;;;2.44;81.34
56568;BME280;42456;49.956;20.004;2023-02-15T06:43:24;99866.73;;;2.44;81.10
56568;BME280;42456;49.956;20.004;2023-02-15T06:45:51;99871.86;;;2.44;81.37
56568;BME280;42456;49.956;20.004;2023-02-15T06:48:18;99878.40;;;2.44;81.05
56568;BME280;42456;49.956;20.004;2023-02-15T06:50:45;99875.71;;;2.42;80.80
56568;BME280;42456;49.956;20.004;2023-02-15T06:53:12;99873.32;;;2.40;80.39
56568;BME280;42456;49.956;20.004;2023-02-15T06:55:39;99875.08;;;2.37;80.58
56568;BME280;42456;49.956;20.004;2023-02-15T06:58:05;99871.46;;;2.37;80.47
56568;BME280;42456;49.956;20.004;2023-02-15T07:00:32;99869.08;;;2.37;80.93
56568;BME280;42456;49.956;20.004;2023-02-15T07:02:59;99871.02;;;2.38;80.88
56568;BME280;42456;49.956;20.004;2023-02-15T07:05:27;99870.31;;;2.41;80.68
56568;BME280;42456;49.956;20.004;2023-02-15T07:07:58;99878.98;;;2.41;80.69
56568;BME280;42456;49.956;20.004;2023-02-15T07:10:26;99877.77;;;2.39;80.50
56568;BME280;42456;49.956;20.004;2023-02-15T07:12:53;99876.14;;;2.37;80.83
56568;BME280;42456;49.956;20.004;2023-02-15T07:15:20;99876.26;;;2.37;80.58
56568;BME280;42456;49.956;20.004;2023-02-15T07:17:47;99873.14;;;2.38;80.75
56568;BME280;42456;49.956;20.004;2023-02-15T07:20:19;99868.77;;;2.40;81.04
56568;BME280;42456;49.956;20.004;2023-02-15T07:22:46;99866.83;;;2.45;80.55
56568;BME280;42456;49.956;20.004;2023-02-15T07:25:14;99866.61;;;2.49;80.47
56568;BME280;42456;49.956;20.004;2023-02-15T07:27:41;99867.59;;;2.54;80.53
56568;BME280;42456;49.956;20.004;2023-02-15T07:30:11;99870.44;;;2.55;80.51
56568;BME280;42456;49.956;20.004;2023-02-15T07:33:20;99863.13;;;2.54;79.95
56568;BME280;42456;49.956;20.004;2023-02-15T07:35:55;99864.29;;;2.50;79.90
56568;BME280;42456;49.956;20.004;2023-02-15T07:38:33;99863.30;;;2.51;80.04
56568;BME280;42456;49.956;20.004;2023-02-15T07:41:01;99859.03;;;2.56;80.13
56568;BME280;42456;49.956;20.004;2023-02-15T07:43:29;99856.38;;;2.66;80.45
56568;BME280;42456;49.956;20.004;2023-02-15T07:46:00;99852.92;;;2.75;80.25
56568;BME280;42456;49.956;20.004;2023-02-15T07:48:27;99850.00;;;2.83;79.89
56568;BME280;42456;49.956;20.004;2023-02-15T07:50:58;99850.98;;;2.92;80.00
56568;BME280;42456;49.956;20.004;2023-02-15T07:53:25;99848.98;;;2.96;79.71
56568;BME280;42456;49.956;20.004;2023-02-15T07:55:52;99850.99;;;3.02;79.66
56568;BME280;42456;49.956;20.004;2023-02-15T07:58:19;99851.27;;;3.05;79.37
56568;BME280;42456;49.956;20.004;2023-02-15T08:00:46;99851.08;;;3.10;79.56
56568;BME280;42456;49.956;20.004;2023-02-15T08:03:27;99846.52;;;3.17;79.54
56568;BME280;42456;49.956;20.004;2023-02-15T08:05:58;99850.54;;;3.33;79.32
56568;BME280;42456;49.956;20.004;2023-02-15T08:08:26;99847.05;;;3.46;79.27
56568;BME280;42456;49.956;20.004;2023-02-15T08:13:42;99846.15;;;3.69;78.94
56568;BME280;42456;49.956;20.004;2023-02-15T08:17:00;99839.27;;;3.79;78.86
56568;BME280;42456;49.956;20.004;2023-02-15T08:19:31;99833.71;;;3.94;79.00
56568;BME280;42456;49.956;20.004;2023-02-15T08:22:06;99832.81;;;4.04;78.43
56568;BME280;42456;49.956;20.004;2023-02-15T08:24:35;99832.08;;;4.09;77.95
56568;BME280;42456;49.956;20.004;2023-02-15T08:27:07;99832.33;;;4.17;77.97
56568;BME280;42456;49.956;20.004;2023-02-15T08:29:36;99831.81;;;4.23;77.32
56568;BME280;42456;49.956;20.004;2023-02-15T08:32:09;99827.75;;;4.26;77.20
56568;BME280;42456;49.956;20.004;2023-02-15T08:34:41;99829.02;;;4.31;77.64
56568;BME280;42456;49.956;20.004;2023-02-15T08:37:08;99826.16;;;4.37;77.56
56568;BME280;42456;49.956;20.004;2023-02-15T08:39:36;99823.55;;;4.41;77.21
56568;BME280;42456;49.956;20.004;2023-02-15T08:42:03;99822.27;;;4.47;76.85
56568;BME280;42456;49.956;20.004;2023-02-15T08:44:30;99825.75;;;4.49;76.85
56568;BME280;42456;49.956;20.004;2023-02-15T08:46:57;99820.86;;;4.49;76.58
56568;BME280;42456;49.956;20.004;2023-02-15T08:49:29;99821.23;;;4.49;76.50
56568;BME280;42456;49.956;20.004;2023-02-15T08:51:56;99815.94;;;4.52;76.56
56568;BME280;42456;49.956;20.004;2023-02-15T08:54:22;99820.73;;;4.57;76.46
56568;BME280;42456;49.956;20.004;2023-02-15T08:56:50;99814.09;;;4.61;76.65
56568;BME280;42456;49.956;20.004;2023-02-15T08:59:19;99814.84;;;4.67;76.46
56568;BME280;42456;49.956;20.004;2023-02-15T09:01:48;99808.98;;;4.72;76.18
56568;BME280;42456;49.956;20.004;2023-02-15T09:04:16;99801.94;;;4.77;76.27
56568;BME280;42456;49.956;20.004;2023-02-15T09:06:45;99800.80;;;4.82;75.88
56568;BME280;42456;49.956;20.004;2023-02-15T09:09:15;99800.57;;;4.86;75.72
56568;BME280;42456;49.956;20.004;2023-02-15T09:11:45;99804.92;;;4.89;75.67
56568;BME280;42456;49.956;20.004;2023-02-15T09:14:15;99801.52;;;4.91;75.25
56568;BME280;42456;49.956;20.004;2023-02-15T09:16:45;99796.20;;;4.93;75.22
56568;BME280;42456;49.956;20.004;2023-02-15T09:19:16;99793.58;;;4.98;75.33
56568;BME280;42456;49.956;20.004;2023-02-15T09:21:45;99788.89;;;5.07;75.97
56568;BME280;42456;49.956;20.004;2023-02-15T09:24:13;99789.57;;;5.12;74.96
56568;BME280;42456;49.956;20.004;2023-02-15T09:26:42;99789.69;;;5.15;74.85
56568;BME280;42456;49.956;20.004;2023-02-15T09:29:12;99785.80;;;5.15;74.66
56568;BME280;42456;49.956;20.004;2023-02-15T09:31:43;99779.20;;;5.18;74.28
56568;BME280;42456;49.956;20.004;2023-02-15T09:34:13;99776.35;;;5.22;74.52
56568;BME280;42456;49.956;20.004;2023-02-15T09:36:40;99779.75;;;5.28;74.83
56568;BME280;42456;49.956;20.004;2023-02-15T09:39:16;99778.20;;;5.30;74.17
56568;BME280;42456;49.956;20.004;2023-02-15T10:01:04;99765.80;;;5.43;73.65
56568;BME280;42456;49.956;20.004;2023-02-15T10:04:26;99762.92;;;5.43;73.28
56568;BME280;42456;49.956;20.004;2023-02-15T10:09:39;99748.48;;;5.48;73.52
56568;BME280;42456;49.956;20.004;2023-02-15T10:28:50;99728.17;;;5.74;73.60
56568;BME280;42456;49.956;20.004;2023-02-15T10:31:26;99725.55;;;5.79;73.34
56568;BME280;42456;49.956;20.004;2023-02-15T10:42:46;99721.07;;;6.07;72.69
56568;BME280;42456;49.956;20.004;2023-02-15T10:47:55;99715.69;;;6.13;72.93
56568;BME280;42456;49.956;20.004;2023-02-15T10:56:11;99710.85;;;6.27;72.15
56568;BME280;42456;49.956;20.004;2023-02-15T10:58:51;99706.52;;;6.27;72.27
56568;BME280;42456;49.956;20.004;2023-02-15T11:01:32;99703.25;;;6.31;72.07
56568;BME280;42456;49.956;20.004;2023-02-15T11:07:04;99693.59;;;6.39;71.79
56568;BME280;42456;49.956;20.004;2023-02-15T11:09:44;99682.75;;;6.45;71.49
56568;BME280;42456;49.956;20.004;2023-02-15T11:12:16;99677.88;;;6.50;71.15
56568;BME280;42456;49.956;20.004;2023-02-15T11:14:57;99673.93;;;6.54;71.62
56568;BME280;42456;49.956;20.004;2023-02-15T11:17:56;99670.23;;;6.64;71.92
56568;BME280;42456;49.956;20.004;2023-02-15T11:20:35;99674.81;;;6.76;71.89
56568;BME280;42456;49.956;20.004;2023-02-15T11:23:13;99675.60;;;6.84;71.13
56568;BME280;42456;49.956;20.004;2023-02-15T11:25:51;99669.45;;;6.88;71.09
56568;BME280;42456;49.956;20.004;2023-02-15T11:28:23;99672.00;;;6.93;70.71
56568;BME280;42456;49.956;20.004;2023-02-15T11:30:55;99666.91;;;6.96;70.68
56568;BME280;42456;49.956;20.004;2023-02-15T11:33:35;99664.98;;;6.99;70.72
56568;BME280;42456;49.956;20.004;2023-02-15T11:36:13;99663.97;;;7.03;70.39
56568;BME280;42456;49.956;20.004;2023-02-15T11:38:46;99655.34;;;7.05;69.50
56568;BME280;42456;49.956;20.004;2023-02-15T11:41:19;99648.05;;;7.08;69.69
56568;BME280;42456;49.956;20.004;2023-02-15T11:44:20;99652.58;;;7.14;70.19
56568;BME280;42456;49.956;20.004;2023-02-15T11:46:45;99646.95;;;7.21;69.78
56568;BME280;42456;49.956;20.004;2023-02-15T11:51:50;99637.44;;;7.28;69.37
56568;BME280;42456;49.956;20.004;2023-02-15T11:54:26;99634.42;;;7.34;69.50
56568;BME280;42456;49.956;20.004;2023-02-15T11:56:56;99636.96;;;7.41;69.28
56568;BME280;42456;49.956;20.004;2023-02-15T11:59:32;99637.41;;;7.48;68.61
56568;BME280;42456;49.956;20.004;2023-02-15T12:02:01;99636.09;;;7.54;68.66
56568;BME280;42456;49.956;20.004;2023-02-15T12:09:55;99620.67;;;7.72;68.57
56568;BME280;42456;49.956;20.004;2023-02-15T12:12:30;99609.59;;;7.78;68.30
56568;BME280;42456;49.956;20.004;2023-02-15T12:15:03;99612.02;;;7.84;68.15
56568;BME280;42456;49.956;20.004;2023-02-15T12:17:38;99602.64;;;7.86;67.66
56568;BME280;42456;49.956;20.004;2023-02-15T12:23:14;99595.08;;;7.87;67.82
56568;BME280;42456;49.956;20.004;2023-02-15T12:25:42;99590.50;;;7.90;67.24
56568;BME280;42456;49.956;20.004;2023-02-15T12:28:30;99592.31;;;7.92;67.14
56568;BME280;42456;49.956;20.004;2023-02-15T12:30:59;99589.88;;;7.94;67.01
56568;BME280;42456;49.956;20.004;2023-02-15T12:33:35;99586.34;;;7.95;66.74
56568;BME280;42456;49.956;20.004;2023-02-15T12:36:18;99585.77;;;7.98;66.95
56568;BME280;42456;49.956;20.004;2023-02-15T12:39:04;99581.46;;;8.01;66.84
56568;BME280;42456;49.956;20.004;2023-02-15T12:41:31;99576.95;;;8.04;66.64
56568;BME280;42456;49.956;20.004;2023-02-15T12:44:17;99577.55;;;8.08;66.84
56568;BME280;42456;49.956;20.004;2023-02-15T12:49:28;99572.84;;;8.15;66.60
56568;BME280;42456;49.956;20.004;2023-02-15T12:52:01;99569.64;;;8.19;66.08
56568;BME280;42456;49.956;20.004;2023-02-15T12:54:32;99571.19;;;8.22;65.98
56568;BME280;42456;49.956;20.004;2023-02-15T12:57:25;99566.13;;;8.25;66.06
56568;BME280;42456;49.956;20.004;2023-02-15T12:59:56;99563.30;;;8.30;65.60
56568;BME280;42456;49.956;20.004;2023-02-15T13:02:31;99564.44;;;8.34;65.60
56568;BME280;42456;49.956;20.004;2023-02-15T13:08:02;99555.75;;;8.35;64.92
56568;BME280;42456;49.956;20.004;2023-02-15T13:13:18;99553.20;;;8.38;65.30
56568;BME280;42456;49.956;20.004;2023-02-15T13:15:51;99548.21;;;8.39;64.73
56568;BME280;42456;49.956;20.004;2023-02-15T13:18:32;99544.27;;;8.41;65.40
56568;BME280;42456;49.956;20.004;2023-02-15T13:21:10;99539.26;;;8.44;65.33
56568;BME280;42456;49.956;20.004;2023-02-15T13:23:43;99537.19;;;8.47;65.00
56568;BME280;42456;49.956;20.004;2023-02-15T13:26:16;99541.54;;;8.51;64.97
56568;BME280;42456;49.956;20.004;2023-02-15T13:28:49;99539.80;;;8.53;65.04
56568;BME280;42456;49.956;20.004;2023-02-15T13:31:20;99534.60;;;8.53;65.01
56568;BME280;42456;49.956;20.004;2023-02-15T13:33:49;99536.46;;;8.55;65.41
56568;BME280;42456;49.956;20.004;2023-02-15T13:39:25;99535.48;;;8.56;65.79
56568;BME280;42456;49.956;20.004;2023-02-15T13:42:04;99529.86;;;8.55;65.17
56568;BME280;42456;49.956;20.004;2023-02-15T13:55:47;99522.29;;;8.51;65.62
56568;BME280;42456;49.956;20.004;2023-02-15T14:03:57;99517.07;;;8.53;65.47
56568;BME280;42456;49.956;20.004;2023-02-15T14:23:16;99504.71;;;8.54;65.37
56568;BME280;42456;49.956;20.004;2023-02-15T14:26:01;99502.97;;;8.52;65.38
56568;BME280;42456;49.956;20.004;2023-02-15T14:28:43;99499.90;;;8.50;65.27
56568;BME280;42456;49.956;20.004;2023-02-15T14:31:15;99493.63;;;8.49;65.20
56568;BME280;42456;49.956;20.004;2023-02-15T14:34:00;99491.02;;;8.48;65.28
56568;BME280;42456;49.956;20.004;2023-02-15T14:36:28;99487.39;;;8.46;65.10
56568;BME280;42456;49.956;20.004;2023-02-15T14:39:08;99491.53;;;8.45;65.17
56568;BME280;42456;49.956;20.004;2023-02-15T14:42:07;99489.41;;;8.43;65.56
56568;BME280;42456;49.956;20.004;2023-02-15T14:44:43;99491.52;;;8.40;65.37
56568;BME280;42456;49.956;20.004;2023-02-15T14:47:26;99490.73;;;8.36;65.12
56568;BME280;42456;49.956;20.004;2023-02-15T14:49:57;99488.73;;;8.31;65.00
56568;BME280;42456;49.956;20.004;2023-02-15T14:52:24;99484.90;;;8.28;65.16
56568;BME280;42456;49.956;20.004;2023-02-15T14:54:56;99485.89;;;8.26;65.04
56568;BME280;42456;49.956;20.004;2023-02-15T14:57:31;99483.31;;;8.26;65.31
56568;BME280;42456;49.956;20.004;2023-02-15T15:00:03;99482.68;;;8.25;65.14
56568;BME280;42456;49.956;20.004;2023-02-15T15:02:51;99481.23;;;8.25;65.33
56568;BME280;42456;49.956;20.004;2023-02-15T15:05:21;99477.42;;;8.26;65.33
56568;BME280;42456;49.956;20.004;2023-02-15T15:07:53;99478.48;;;8.26;65.24
56568;BME280;42456;49.956;20.004;2023-02-15T15:12:52;99475.25;;;8.21;65.26
56568;BME280;42456;49.956;20.004;2023-02-15T15:18:04;99476.84;;;8.11;65.42
56568;BME280;42456;49.956;20.004;2023-02-15T15:20:48;99472.47;;;8.04;65.33
56568;BME280;42456;49.956;20.004;2023-02-15T15:25:56;99465.92;;;7.87;65.54
56568;BME280;42456;49.956;20.004;2023-02-15T15:36:55;99460.79;;;7.49;66.23
56568;BME280;42456;49.956;20.004;2023-02-15T15:42:32;99463.91;;;7.24;67.11
56568;BME280;42456;49.956;20.004;2023-02-15T15:50:40;99458.53;;;6.95;68.06
56568;BME280;42456;49.956;20.004;2023-02-15T15:53:20;99463.08;;;6.88;67.92
56568;BME280;42456;49.956;20.004;2023-02-15T15:55:52;99455.20;;;6.79;68.36
56568;BME280;42456;49.956;20.004;2023-02-15T15:58:23;99456.41;;;6.71;68.65
56568;BME280;42456;49.956;20.004;2023-02-15T16:00:57;99462.59;;;6.62;68.90
56568;BME280;42456;49.956;20.004;2023-02-15T16:03:27;99456.76;;;6.54;69.12
56568;BME280;42456;49.956;20.004;2023-02-15T16:05:55;99458.45;;;6.46;69.39
56568;BME280;42456;49.956;20.004;2023-02-15T16:08:31;99462.00;;;6.36;69.36
56568;BME280;42456;49.956;20.004;2023-02-15T16:10:58;99461.02;;;6.25;69.35
56568;BME280;42456;49.956;20.004;2023-02-15T16:13:26;99460.36;;;6.13;69.61
56568;BME280;42456;49.956;20.004;2023-02-15T16:15:54;99458.77;;;6.02;69.68